createdAt,value
2022-09-12T00:00:03.268Z,78.31
2022-09-12T00:01:03.289Z,78.25
2022-09-12T00:02:03.331Z,78.35
2022-09-12T00:03:03.261Z,78.25
2022-09-12T00:04:03.249Z,78.25
2022-09-12T00:05:03.244Z,78.45
2022-09-12T00:06:03.228Z,78.55
2022-09-12T00:07:03.223Z,78.45
2022-09-12T00:08:03.214Z,78.45
2022-09-12T00:09:03.204Z,78.35
2022-09-12T00:10:03.216Z,78.35
2022-09-12T00:11:03.178Z,78.35
2022-09-12T00:12:03.175Z,78.35
2022-09-12T00:13:03.161Z,78.35
2022-09-12T00:14:03.143Z,78.35
2022-09-12T00:15:03.157Z,78.45
2022-09-12T00:16:03.145Z,78.35
2022-09-12T00:17:03.136Z,78.45
2022-09-12T00:18:03.113Z,78.45
2022-09-12T00:19:03.346Z,78.55
2022-09-12T00:20:03.094Z,78.55
2022-09-12T00:21:03.099Z,78.55
2022-09-12T00:22:03.095Z,78.55
2022-09-12T00:23:03.065Z,78.55
2022-09-12T00:24:03.070Z,78.45
2022-09-12T00:25:03.047Z,78.66
2022-09-12T00:26:03.036Z,78.66
2022-09-12T00:27:03.045Z,78.80
2022-09-12T00:28:03.050Z,78.69
2022-09-12T00:29:03.034Z,78.69
2022-09-12T00:30:03.007Z,78.80
2022-09-12T00:31:03.013Z,78.89
2022-09-12T00:32:02.988Z,79.00
2022-09-12T00:33:02.980Z,78.80
2022-09-12T00:34:03.103Z,78.89
2022-09-12T00:35:02.973Z,78.89
2022-09-12T00:36:02.964Z,78.80
2022-09-12T00:37:02.962Z,78.80
2022-09-12T00:38:02.940Z,78.89
2022-09-12T00:39:02.945Z,79.00
2022-09-12T00:40:02.994Z,78.89
2022-09-12T00:41:02.932Z,78.89
2022-09-12T00:42:02.916Z,78.80
2022-09-12T00:43:02.914Z,78.69
2022-09-12T00:44:02.896Z,78.80
2022-09-12T00:45:02.885Z,78.80
2022-09-12T00:46:02.920Z,78.80
2022-09-12T00:47:02.878Z,78.80
2022-09-12T00:48:02.859Z,78.80
2022-09-12T00:49:02.859Z,78.80
2022-09-12T00:50:02.833Z,78.89
2022-09-12T00:51:02.825Z,78.89
2022-09-12T00:52:02.820Z,78.89
2022-09-12T00:53:02.819Z,78.89
2022-09-12T00:54:02.797Z,78.89
2022-09-12T00:55:02.788Z,78.89
2022-09-12T00:56:02.804Z,78.89
2022-09-12T00:57:02.776Z,78.89
2022-09-12T00:58:02.788Z,78.89
2022-09-12T00:59:02.762Z,78.89
2022-09-12T01:00:02.765Z,78.89
2022-09-12T01:01:02.818Z,78.89
2022-09-12T01:02:03.037Z,78.89
2022-09-12T01:03:02.718Z,78.89
2022-09-12T01:04:02.744Z,79.00
2022-09-12T01:05:02.700Z,79.00
2022-09-12T01:06:02.712Z,79.10
2022-09-12T01:07:02.680Z,79.20
2022-09-12T01:08:02.694Z,79.20
2022-09-12T01:09:02.675Z,79.30
2022-09-12T01:10:02.671Z,79.41
2022-09-12T01:11:02.655Z,79.34
2022-09-12T01:12:02.657Z,79.34
2022-09-12T01:13:02.631Z,79.30
2022-09-12T01:14:02.625Z,79.00
2022-09-12T01:15:02.624Z,79.03
2022-09-12T01:16:02.670Z,79.10
2022-09-12T01:17:02.594Z,79.14
2022-09-12T01:18:02.585Z,79.14
2022-09-12T01:19:02.574Z,79.14
2022-09-12T01:20:02.574Z,79.14
2022-09-12T01:21:02.563Z,79.14
2022-09-12T01:22:02.580Z,79.14
2022-09-12T01:23:02.536Z,79.14
2022-09-12T01:24:02.550Z,79.14
2022-09-12T01:25:02.537Z,79.14
2022-09-12T01:26:02.517Z,79.03
2022-09-12T01:27:02.520Z,79.03
2022-09-12T01:28:02.522Z,79.03
2022-09-12T01:29:02.527Z,79.03
2022-09-12T01:30:02.485Z,79.03
2022-09-12T01:31:02.482Z,79.03
2022-09-12T01:32:02.512Z,79.14
2022-09-12T01:33:02.463Z,79.14
2022-09-12T01:34:02.484Z,79.14
2022-09-12T01:35:02.430Z,79.24
2022-09-12T01:36:02.444Z,79.34
2022-09-12T01:37:02.425Z,79.24
2022-09-12T01:38:02.412Z,79.14
2022-09-12T01:39:02.402Z,79.24
2022-09-12T01:40:02.477Z,79.34
2022-09-12T01:41:02.382Z,79.34
2022-09-12T01:42:02.394Z,79.24
2022-09-12T01:43:02.365Z,79.14
2022-09-12T01:44:02.376Z,79.14
2022-09-12T01:45:02.357Z,79.14
2022-09-12T01:46:02.430Z,79.14
2022-09-12T01:47:02.339Z,79.14
2022-09-12T01:48:02.338Z,79.14
2022-09-12T01:49:02.329Z,79.24
2022-09-12T01:50:02.319Z,79.14
2022-09-12T01:51:02.309Z,79.24
2022-09-12T01:52:02.321Z,79.24
2022-09-12T01:53:02.290Z,79.24
2022-09-12T01:54:02.287Z,79.14
2022-09-12T01:55:05.390Z,79.24
2022-09-12T01:56:02.271Z,79.14
2022-09-12T01:57:02.245Z,79.24
2022-09-12T01:58:02.271Z,79.17
2022-09-12T01:59:02.234Z,79.17
2022-09-12T02:00:02.233Z,79.17
2022-09-12T02:01:02.228Z,79.17
2022-09-12T02:02:02.275Z,79.27
2022-09-12T02:03:02.193Z,79.17
2022-09-12T02:04:02.303Z,79.27
2022-09-12T02:05:02.183Z,79.17
2022-09-12T02:06:02.184Z,79.07
2022-09-12T02:07:02.165Z,79.17
2022-09-12T02:08:02.166Z,79.17
2022-09-12T02:09:02.151Z,79.17
2022-09-12T02:10:02.246Z,79.17
2022-09-12T02:11:02.122Z,79.17
2022-09-12T02:12:02.125Z,79.17
2022-09-12T02:13:02.120Z,79.07
2022-09-12T02:14:02.114Z,79.07
2022-09-12T02:15:02.084Z,79.07
2022-09-12T02:16:02.119Z,79.07
2022-09-12T02:17:02.078Z,78.97
2022-09-12T02:18:02.064Z,79.11
2022-09-12T02:19:02.068Z,79.00
2022-09-12T02:20:02.046Z,79.11
2022-09-12T02:21:02.051Z,79.11
2022-09-12T02:22:02.056Z,79.17
2022-09-12T02:23:02.016Z,79.21
2022-09-12T02:24:02.017Z,79.11
2022-09-12T02:25:02.013Z,79.21
2022-09-12T02:26:02.011Z,79.32
2022-09-12T02:27:01.991Z,79.32
2022-09-12T02:28:01.998Z,79.21
2022-09-12T02:29:01.969Z,79.21
2022-09-12T02:30:01.967Z,79.41
2022-09-12T02:31:02.007Z,79.62
2022-09-12T02:32:01.949Z,79.62
2022-09-12T02:33:01.944Z,79.62
2022-09-12T02:34:01.967Z,79.62
2022-09-12T02:35:01.910Z,79.52
2022-09-12T02:36:01.910Z,79.41
2022-09-12T02:37:01.901Z,79.41
2022-09-12T02:38:01.916Z,79.41
2022-09-12T02:39:01.884Z,79.52
2022-09-12T02:40:01.953Z,79.41
2022-09-12T02:41:01.876Z,79.32
2022-09-12T02:42:01.862Z,79.00
2022-09-12T02:43:01.864Z,79.11
2022-09-12T02:44:01.856Z,79.11
2022-09-12T02:45:01.831Z,79.21
2022-09-12T02:46:01.946Z,79.32
2022-09-12T02:47:01.813Z,79.32
2022-09-12T02:48:01.818Z,79.32
2022-09-12T02:49:01.808Z,79.32
2022-09-12T02:50:01.798Z,79.52
2022-09-12T02:51:01.789Z,79.52
2022-09-12T02:52:01.796Z,79.66
2022-09-12T02:53:01.769Z,79.62
2022-09-12T02:54:01.756Z,79.66
2022-09-12T02:55:01.748Z,79.75
2022-09-12T02:56:01.750Z,79.86
2022-09-12T02:57:01.731Z,79.86
2022-09-12T02:58:01.761Z,79.86
2022-09-12T02:59:01.722Z,79.75
2022-09-12T03:00:01.707Z,79.86
2022-09-12T03:01:01.721Z,79.96
2022-09-12T03:02:01.698Z,79.75
2022-09-12T03:03:01.680Z,79.86
2022-09-12T03:04:01.704Z,79.86
2022-09-12T03:05:01.659Z,79.86
2022-09-12T03:06:01.650Z,79.75
2022-09-12T03:07:01.654Z,79.66
2022-09-12T03:08:01.655Z,79.86
2022-09-12T03:09:01.635Z,79.86
2022-09-12T03:10:01.655Z,79.86
2022-09-12T03:11:01.615Z,79.86
2022-09-12T03:12:01.601Z,79.86
2022-09-12T03:13:01.596Z,79.75
2022-09-12T03:14:01.596Z,79.75
2022-09-12T03:15:01.669Z,79.66
2022-09-12T03:16:01.574Z,79.55
2022-09-12T03:17:01.554Z,79.55
2022-09-12T03:18:01.555Z,79.45
2022-09-12T03:19:01.548Z,79.45
2022-09-12T03:20:01.541Z,79.45
2022-09-12T03:21:01.515Z,79.45
2022-09-12T03:22:01.539Z,79.45
2022-09-12T03:23:01.496Z,79.55
2022-09-12T03:24:01.513Z,79.35
2022-09-12T03:25:01.488Z,79.35
2022-09-12T03:26:01.492Z,79.55
2022-09-12T03:27:01.480Z,79.66
2022-09-12T03:28:01.481Z,79.55
2022-09-12T03:29:01.447Z,79.55
2022-09-12T03:30:01.448Z,79.55
2022-09-12T03:31:01.467Z,79.55
2022-09-12T03:32:01.429Z,79.55
2022-09-12T03:33:01.410Z,79.66
2022-09-12T03:34:01.442Z,79.66
2022-09-12T03:35:01.406Z,79.66
2022-09-12T03:36:01.404Z,79.49
2022-09-12T03:37:01.370Z,79.59
2022-09-12T03:38:01.370Z,79.59
2022-09-12T03:39:01.372Z,79.59
2022-09-12T03:40:01.386Z,79.59
2022-09-12T03:41:01.341Z,79.49
2022-09-12T03:42:01.333Z,79.49
2022-09-12T03:43:01.322Z,79.59
2022-09-12T03:44:01.335Z,79.59
2022-09-12T03:45:01.320Z,79.59
2022-09-12T03:46:01.363Z,79.59
2022-09-12T03:47:01.284Z,79.59
2022-09-12T03:48:01.297Z,79.69
2022-09-12T03:49:01.285Z,79.59
2022-09-12T03:50:01.264Z,79.59
2022-09-12T03:51:01.269Z,79.59
2022-09-12T03:52:01.265Z,79.59
2022-09-12T03:53:01.235Z,79.49
2022-09-12T03:54:01.240Z,79.69
2022-09-12T03:55:01.231Z,79.80
2022-09-12T03:56:01.230Z,79.80
2022-09-12T03:57:01.210Z,79.69
2022-09-12T03:58:01.225Z,79.69
2022-09-12T03:59:01.192Z,79.69
2022-09-12T04:00:01.191Z,79.69
2022-09-12T04:01:01.200Z,79.90
2022-09-12T04:02:01.213Z,80.10
2022-09-12T04:03:01.147Z,80.10
2022-09-12T04:04:01.161Z,80.00
2022-09-12T04:05:01.143Z,79.90
2022-09-12T04:06:01.120Z,79.80
2022-09-12T04:07:01.112Z,79.80
2022-09-12T04:08:01.125Z,79.80
2022-09-12T04:09:01.105Z,79.90
2022-09-12T04:10:01.100Z,79.80
2022-09-12T04:11:01.092Z,79.80
2022-09-12T04:12:01.087Z,79.69
2022-09-12T04:13:01.075Z,79.80
2022-09-12T04:14:01.062Z,79.69
2022-09-12T04:15:01.057Z,79.69
2022-09-12T04:16:01.061Z,79.69
2022-09-12T04:17:01.033Z,79.59
2022-09-12T04:18:05.593Z,79.59
2022-09-12T04:19:01.037Z,79.73
2022-09-12T04:20:01.006Z,79.63
2022-09-12T04:21:01.008Z,79.52
2022-09-12T04:22:01.018Z,79.52
2022-09-12T04:23:00.993Z,79.63
2022-09-12T04:24:00.976Z,79.63
2022-09-12T04:25:00.967Z,79.63
2022-09-12T04:26:00.969Z,79.63
2022-09-12T04:27:04.799Z,79.63
2022-09-12T04:28:00.966Z,79.63
2022-09-12T04:29:00.927Z,79.73
2022-09-12T04:30:00.942Z,79.83
2022-09-12T04:31:00.939Z,79.93
2022-09-12T04:32:00.921Z,79.93
2022-09-12T04:33:03.006Z,80.14
2022-09-12T04:34:00.912Z,80.14
2022-09-12T04:35:00.893Z,80.14
2022-09-12T04:36:00.880Z,80.44
2022-09-12T04:37:00.871Z,80.55
2022-09-12T04:38:00.874Z,80.55
2022-09-12T04:39:00.862Z,80.34
2022-09-12T04:40:00.898Z,80.44
2022-09-12T04:41:00.844Z,80.34
2022-09-12T04:42:00.844Z,80.44
2022-09-12T04:43:00.812Z,80.55
2022-09-12T04:44:00.825Z,80.75
2022-09-12T04:45:00.800Z,80.96
2022-09-12T04:46:00.848Z,81.16
2022-09-12T04:47:00.783Z,81.16
2022-09-12T04:48:00.784Z,81.05
2022-09-12T04:49:00.783Z,80.71
2022-09-12T04:50:00.777Z,81.02
2022-09-12T04:51:00.745Z,80.82
2022-09-12T04:52:00.768Z,80.71
2022-09-12T04:53:00.734Z,80.91
2022-09-12T04:54:00.728Z,81.02
2022-09-12T04:55:00.716Z,81.02
2022-09-12T04:56:00.716Z,81.02
2022-09-12T04:57:00.711Z,81.12
2022-09-12T04:58:00.710Z,81.02
2022-09-12T04:59:00.691Z,81.02
2022-09-12T05:00:05.168Z,80.91
2022-09-12T05:01:00.720Z,80.91
2022-09-12T05:02:00.673Z,81.12
2022-09-12T05:03:00.662Z,81.12
2022-09-12T05:04:00.657Z,81.12
2022-09-12T05:05:00.642Z,81.23
2022-09-12T05:06:00.626Z,81.12
2022-09-12T05:07:00.622Z,81.32
2022-09-12T05:08:00.611Z,81.23
2022-09-12T05:09:00.610Z,81.32
2022-09-12T05:10:00.600Z,81.32
2022-09-12T05:11:00.581Z,81.43
2022-09-12T05:12:04.935Z,81.53
2022-09-12T05:13:00.571Z,81.53
2022-09-12T05:14:00.553Z,81.43
2022-09-12T05:15:00.551Z,81.53
2022-09-12T05:16:00.565Z,81.73
2022-09-12T05:17:00.580Z,81.73
2022-09-12T05:18:00.524Z,81.94
2022-09-12T05:19:00.513Z,82.04
2022-09-12T05:20:00.517Z,82.04
2022-09-12T05:21:00.517Z,82.04
2022-09-12T05:22:00.594Z,82.35
2022-09-12T05:23:00.498Z,82.24
2022-09-12T05:24:00.488Z,82.10
2022-09-12T05:25:00.482Z,82.14
2022-09-12T05:26:00.457Z,82.00
2022-09-12T05:27:00.455Z,82.00
2022-09-12T05:28:00.455Z,81.90
2022-09-12T05:29:00.437Z,82.00
2022-09-12T05:30:00.416Z,81.90
2022-09-12T05:31:00.451Z,82.10
2022-09-12T05:32:00.420Z,82.10
2022-09-12T05:33:00.417Z,82.10
2022-09-12T05:34:00.399Z,81.90
2022-09-12T05:35:00.424Z,81.90
2022-09-12T05:36:00.388Z,81.90
2022-09-12T05:37:00.486Z,81.90
2022-09-12T05:38:00.375Z,81.90
2022-09-12T05:39:00.366Z,81.90
2022-09-12T05:40:00.409Z,81.90
2022-09-12T05:41:00.339Z,81.80
2022-09-12T05:42:00.336Z,82.00
2022-09-12T05:43:00.321Z,81.90
2022-09-12T05:44:00.308Z,82.17
2022-09-12T05:45:00.302Z,82.10
2022-09-12T05:46:00.316Z,82.17
2022-09-12T05:47:00.302Z,82.27
2022-09-12T05:48:00.285Z,82.17
2022-09-12T05:49:00.286Z,82.47
2022-09-12T05:50:00.266Z,82.57
2022-09-12T05:51:00.267Z,82.57
2022-09-12T05:52:00.357Z,82.47
2022-09-12T05:53:00.233Z,82.47
2022-09-12T05:54:00.234Z,82.68
2022-09-12T05:55:00.235Z,82.88
2022-09-12T05:56:00.218Z,82.88
2022-09-12T05:57:00.205Z,82.94
2022-09-12T05:58:00.218Z,83.15
2022-09-12T05:59:00.187Z,83.15
2022-09-12T06:00:00.190Z,83.25
2022-09-12T06:01:00.244Z,83.25
2022-09-12T06:02:00.219Z,83.35
2022-09-12T06:03:00.148Z,83.25
2022-09-12T06:04:00.161Z,83.45
2022-09-12T06:05:00.141Z,83.35
2022-09-12T06:06:00.119Z,83.35
2022-09-12T06:07:00.120Z,83.15
2022-09-12T06:08:00.112Z,83.35
2022-09-12T06:09:00.098Z,83.25
2022-09-12T06:10:00.104Z,83.42
2022-09-12T06:11:02.295Z,83.42
2022-09-12T06:12:00.090Z,83.31
2022-09-12T06:13:00.074Z,83.21
2022-09-12T06:14:00.054Z,83.62
2022-09-12T06:15:00.044Z,83.62
2022-09-12T06:16:00.055Z,83.51
2022-09-12T06:17:00.066Z,83.62
2022-09-12T06:18:00.013Z,83.82
2022-09-12T06:19:00.014Z,84.03
2022-09-12T06:20:00.015Z,83.92
2022-09-12T06:21:00.012Z,83.72
2022-09-12T06:22:00.005Z,83.82
2022-09-12T06:22:59.974Z,84.33
2022-09-12T06:23:59.978Z,84.09
2022-09-12T06:24:59.954Z,83.98
2022-09-12T06:25:59.958Z,84.19
2022-09-12T06:26:59.956Z,84.39
2022-09-12T06:27:59.956Z,84.29
2022-09-12T06:28:59.939Z,84.29
2022-09-12T06:29:59.920Z,84.19
2022-09-12T06:30:59.942Z,84.39
2022-09-12T06:31:59.897Z,84.29
2022-09-12T06:32:59.888Z,84.29
2022-09-12T06:33:59.885Z,84.29
2022-09-12T06:34:59.867Z,84.19
2022-09-12T06:35:59.859Z,84.09
2022-09-12T06:36:59.871Z,84.29
2022-09-12T06:37:59.852Z,84.29
2022-09-12T06:38:59.839Z,84.39
2022-09-12T06:39:59.877Z,84.50
2022-09-12T06:40:59.820Z,84.70
2022-09-12T06:41:59.823Z,84.66
2022-09-12T06:42:59.809Z,84.86
2022-09-12T06:43:59.790Z,84.56
2022-09-12T06:44:59.805Z,84.76
2022-09-12T06:45:59.814Z,84.76
2022-09-12T06:46:59.775Z,84.66
2022-09-12T06:47:59.761Z,84.76
2022-09-12T06:48:59.760Z,84.66
2022-09-12T06:49:59.743Z,85.17
2022-09-12T06:50:59.742Z,85.37
2022-09-12T06:51:59.745Z,85.58
2022-09-12T06:52:59.724Z,85.17
2022-09-12T06:53:59.724Z,85.23
2022-09-12T06:54:59.718Z,85.23
2022-09-12T06:55:59.694Z,85.43
2022-09-12T06:56:59.685Z,85.33
2022-09-12T06:57:59.699Z,85.33
2022-09-12T06:58:59.689Z,85.53
2022-09-12T06:59:59.664Z,85.53
2022-09-12T07:00:59.774Z,85.03
2022-09-12T07:01:59.703Z,85.43
2022-09-12T07:02:59.636Z,85.03
2022-09-12T07:03:59.640Z,84.92
2022-09-12T07:04:59.618Z,85.23
2022-09-12T07:05:59.607Z,85.13
2022-09-12T07:06:59.598Z,84.82
2022-09-12T07:07:59.589Z,84.72
2022-09-12T07:08:59.587Z,84.82
2022-09-12T07:09:59.602Z,84.72
2022-09-12T07:10:59.568Z,84.92
2022-09-12T07:11:59.549Z,84.68
2022-09-12T07:12:59.564Z,84.88
2022-09-12T07:13:59.539Z,84.78
2022-09-12T07:14:59.555Z,84.88
2022-09-12T07:15:59.529Z,84.88
2022-09-12T07:16:59.547Z,84.99
2022-09-12T07:17:59.515Z,84.88
2022-09-12T07:18:59.491Z,84.68
2022-09-12T07:19:59.526Z,84.88
2022-09-12T07:20:59.496Z,85.29
2022-09-12T07:21:59.489Z,85.49
2022-09-12T07:22:59.465Z,85.70
2022-09-12T07:23:59.443Z,85.60
2022-09-12T07:24:59.457Z,85.49
2022-09-12T07:25:59.439Z,85.09
2022-09-12T07:26:59.439Z,84.99
2022-09-12T07:27:59.425Z,85.19
2022-09-12T07:29:13.196Z,85.80
2022-09-12T07:29:59.439Z,85.66
2022-09-12T07:30:59.426Z,85.15
2022-09-12T07:31:59.376Z,85.05
2022-09-12T07:32:59.377Z,84.95
2022-09-12T07:33:59.391Z,85.05
2022-09-12T07:34:59.357Z,85.05
2022-09-12T07:35:59.360Z,85.35
2022-09-12T07:36:59.353Z,85.35
2022-09-12T07:37:59.328Z,85.15
2022-09-12T07:38:59.327Z,85.55
2022-09-12T07:39:59.414Z,85.15
2022-09-12T07:40:59.325Z,85.66
2022-09-12T07:41:59.304Z,85.25
2022-09-12T07:42:59.303Z,85.46
2022-09-12T07:43:59.278Z,85.31
2022-09-12T07:44:59.279Z,85.11
2022-09-12T07:45:59.311Z,85.11
2022-09-12T07:46:59.265Z,85.41
2022-09-12T07:47:59.255Z,85.31
2022-09-12T07:48:59.245Z,85.41
2022-09-12T07:49:59.222Z,85.31
2022-09-12T07:50:59.235Z,85.11
2022-09-12T07:51:59.226Z,84.80
2022-09-12T07:52:59.213Z,85.01
2022-09-12T07:53:59.193Z,84.97
2022-09-12T07:54:59.183Z,85.17
2022-09-12T07:55:59.187Z,84.97
2022-09-12T07:56:59.188Z,85.17
2022-09-12T07:57:59.174Z,84.77
2022-09-12T07:58:59.160Z,84.87
2022-09-12T07:59:59.135Z,85.07
2022-09-12T08:00:59.240Z,84.97
2022-09-12T08:01:59.130Z,84.97
2022-09-12T08:02:59.131Z,84.87
2022-09-12T08:03:59.218Z,84.83
2022-09-12T08:04:59.121Z,84.83
2022-09-12T08:05:59.088Z,84.72
2022-09-12T08:06:59.080Z,84.93
2022-09-12T08:07:59.068Z,84.83
2022-09-12T08:08:59.073Z,84.93
2022-09-12T08:09:59.059Z,85.09
2022-09-12T08:10:59.061Z,85.09
2022-09-12T08:11:59.029Z,85.09
2022-09-12T08:12:59.043Z,85.19
2022-09-12T08:13:59.025Z,85.05
2022-09-12T08:14:59.011Z,85.05
2022-09-12T08:15:59.086Z,85.36
2022-09-12T08:16:59.004Z,85.21
2022-09-12T08:17:58.992Z,85.21
2022-09-12T08:18:58.985Z,85.11
2022-09-12T08:19:58.984Z,85.17
2022-09-12T08:20:58.966Z,85.07
2022-09-12T08:21:58.962Z,84.87
2022-09-12T08:22:58.947Z,84.83
2022-09-12T08:23:58.925Z,84.83
2022-09-12T08:24:58.927Z,84.83
2022-09-12T08:25:59.045Z,84.59
2022-09-12T08:26:58.915Z,84.59
2022-09-12T08:27:58.905Z,84.19
2022-09-12T08:28:58.898Z,84.19
2022-09-12T08:29:58.866Z,83.94
2022-09-12T08:30:58.986Z,84.04
2022-09-12T08:31:58.855Z,83.74
2022-09-12T08:32:58.847Z,83.74
2022-09-12T08:33:58.858Z,83.54
2022-09-12T08:34:58.828Z,83.64
2022-09-12T08:35:58.808Z,83.60
2022-09-12T08:36:58.822Z,83.80
2022-09-12T08:37:58.799Z,83.80
2022-09-12T08:39:00.277Z,83.50
2022-09-12T08:39:58.827Z,83.29
2022-09-12T08:40:58.785Z,83.36
2022-09-12T08:41:58.817Z,83.36
2022-09-12T08:42:58.760Z,83.15
2022-09-12T08:43:58.755Z,82.95
2022-09-12T08:44:58.741Z,82.55
2022-09-12T08:45:58.805Z,82.45
2022-09-12T08:46:58.736Z,82.35
2022-09-12T08:47:58.703Z,82.35
2022-09-12T08:48:58.705Z,82.41
2022-09-12T08:49:58.693Z,82.10
2022-09-12T08:50:58.686Z,82.10
2022-09-12T08:51:58.673Z,82.01
2022-09-12T08:52:58.849Z,82.01
2022-09-12T08:53:58.666Z,81.70
2022-09-12T08:54:58.659Z,81.50
2022-09-12T08:55:58.635Z,81.40
2022-09-12T08:56:58.642Z,81.30
2022-09-12T08:57:58.650Z,81.70
2022-09-12T08:58:58.615Z,81.70
2022-09-12T08:59:58.610Z,81.60
2022-09-12T09:00:58.597Z,81.40
2022-09-12T09:01:58.695Z,81.36
2022-09-12T09:04:09.831Z,81.56
2022-09-12T09:05:09.811Z,81.87
2022-09-12T09:06:09.803Z,82.17
2022-09-12T09:07:09.806Z,81.87
2022-09-12T09:08:09.796Z,81.67
2022-09-12T09:09:09.783Z,81.82
2022-09-12T09:10:09.796Z,81.82
2022-09-12T09:11:09.777Z,81.73
2022-09-12T09:12:09.753Z,81.52
2022-09-12T09:13:09.746Z,80.62
2022-09-12T09:14:09.741Z,80.01
2022-09-12T09:15:09.740Z,80.47
2022-09-12T09:16:09.769Z,80.18
2022-09-12T09:17:09.729Z,80.47
2022-09-12T09:18:09.713Z,80.58
2022-09-12T09:19:09.710Z,79.97
2022-09-12T09:20:09.698Z,79.97
2022-09-12T09:21:09.678Z,80.38
2022-09-12T09:22:09.692Z,80.84
2022-09-12T09:23:09.680Z,80.94
2022-09-12T09:24:09.672Z,81.04
2022-09-12T09:25:09.640Z,81.24
2022-09-12T09:26:09.630Z,81.04
2022-09-12T09:27:29.809Z,81.21
2022-09-12T09:28:09.654Z,81.21
2022-09-12T09:29:09.625Z,81.30
2022-09-12T09:30:09.692Z,80.70
2022-09-12T09:31:09.649Z,80.90
2022-09-12T09:32:09.594Z,81.07
2022-09-12T09:33:09.586Z,80.46
2022-09-12T09:34:09.573Z,80.16
2022-09-12T09:35:09.555Z,79.86
2022-09-12T09:36:09.557Z,79.76
2022-09-12T09:37:09.546Z,79.86
2022-09-12T09:38:09.525Z,79.96
2022-09-12T09:39:09.538Z,79.32
2022-09-12T09:40:09.597Z,79.42
2022-09-12T09:41:09.521Z,79.02
2022-09-12T09:42:09.496Z,79.22
2022-09-12T09:43:09.520Z,78.21
2022-09-12T09:44:09.479Z,78.91
2022-09-12T09:45:09.488Z,78.91
2022-09-12T09:46:09.511Z,78.81
2022-09-12T09:47:09.459Z,78.91
2022-09-12T09:48:09.452Z,78.51
2022-09-12T09:49:09.438Z,78.71
2022-09-12T09:50:09.440Z,79.22
2022-09-12T09:51:09.419Z,79.22
2022-09-12T09:52:09.443Z,79.48
2022-09-12T09:53:09.414Z,79.08
2022-09-12T09:54:09.404Z,78.98
2022-09-12T09:55:09.402Z,78.88
2022-09-12T09:56:09.385Z,78.98
2022-09-12T09:57:09.386Z,78.98
2022-09-12T09:58:09.386Z,79.18
2022-09-12T09:59:09.367Z,79.18
2022-09-12T10:00:09.343Z,79.48
2022-09-12T10:01:09.343Z,79.54
2022-09-12T10:02:09.367Z,79.54
2022-09-12T10:03:13.474Z,78.74
2022-09-12T10:04:09.325Z,79.24
2022-09-12T10:05:09.317Z,79.35
2022-09-12T10:06:09.310Z,79.35
2022-09-12T10:07:09.299Z,79.14
2022-09-12T10:08:09.267Z,79.44
2022-09-12T10:09:09.282Z,79.14
2022-09-12T10:10:09.280Z,78.84
2022-09-12T10:11:09.259Z,78.30
2022-09-12T10:12:09.272Z,78.40
2022-09-12T10:13:09.292Z,78.80
2022-09-12T10:14:09.232Z,79.10
2022-09-12T10:15:09.229Z,78.70
2022-09-12T10:16:09.244Z,77.80
2022-09-12T10:17:09.213Z,77.29
2022-09-12T10:18:09.203Z,77.70
2022-09-12T10:19:09.195Z,78.00
2022-09-12T10:20:20.880Z,77.90
2022-09-12T10:21:09.189Z,77.20
2022-09-12T10:22:09.184Z,77.59
2022-09-12T10:23:09.153Z,77.90
2022-09-12T10:24:09.133Z,78.40
2022-09-12T10:25:09.133Z,78.40
2022-09-12T10:26:09.126Z,78.10
2022-09-12T10:27:09.126Z,78.00
2022-09-12T10:28:09.104Z,78.20
2022-09-12T10:29:09.115Z,77.70
2022-09-12T10:30:09.126Z,77.50
2022-09-12T10:31:09.139Z,76.89
2022-09-12T10:32:09.079Z,77.39
2022-09-12T10:33:09.066Z,77.80
2022-09-12T10:34:09.065Z,78.10
2022-09-12T10:35:09.100Z,77.50
2022-09-12T10:36:09.038Z,77.20
2022-09-12T10:37:09.041Z,77.29
2022-09-12T10:38:09.032Z,77.20
2022-09-12T10:39:09.059Z,77.29
2022-09-12T10:40:09.054Z,77.70
2022-09-12T10:41:09.000Z,78.10
2022-09-12T10:42:08.980Z,78.40
2022-09-12T10:43:08.981Z,78.70
2022-09-12T10:44:08.971Z,78.30
2022-09-12T10:45:08.975Z,78.40
2022-09-12T10:46:08.997Z,78.60
2022-09-12T10:47:08.952Z,78.50
2022-09-12T10:48:08.932Z,78.80
2022-09-12T10:49:08.933Z,78.16
2022-09-12T10:50:08.927Z,78.06
2022-09-12T10:51:08.915Z,78.27
2022-09-12T10:52:08.915Z,78.46
2022-09-12T10:53:08.909Z,78.27
2022-09-12T10:54:08.885Z,78.56
2022-09-12T10:55:08.889Z,78.56
2022-09-12T10:56:08.866Z,78.66
2022-09-12T10:57:08.870Z,78.86
2022-09-12T10:58:08.962Z,78.97
2022-09-12T10:59:08.848Z,78.46
2022-09-12T11:00:08.828Z,77.66
2022-09-12T11:01:08.875Z,77.96
2022-09-12T11:02:08.856Z,77.86
2022-09-12T11:03:08.811Z,78.36
2022-09-12T11:04:08.823Z,78.36
2022-09-12T11:05:08.791Z,77.96
2022-09-12T11:06:08.781Z,77.56
2022-09-12T11:07:08.780Z,77.16
2022-09-12T11:08:08.760Z,77.76
2022-09-12T11:09:08.762Z,77.76
2022-09-12T11:10:08.752Z,78.16
2022-09-12T11:11:08.743Z,78.27
2022-09-12T11:12:08.743Z,78.33
2022-09-12T11:13:08.723Z,78.22
2022-09-12T11:14:08.713Z,77.72
2022-09-12T11:15:08.727Z,78.12
2022-09-12T11:16:08.746Z,78.03
2022-09-12T11:17:12.796Z,77.92
2022-09-12T11:18:08.688Z,78.12
2022-09-12T11:19:08.675Z,78.03
2022-09-12T11:20:08.659Z,78.22
2022-09-12T11:21:08.657Z,78.12
2022-09-12T11:22:08.670Z,78.12
2022-09-12T11:23:08.639Z,78.12
2022-09-12T11:24:08.628Z,78.12
2022-09-12T11:25:08.619Z,77.99
2022-09-12T11:26:08.608Z,77.72
2022-09-12T11:27:08.608Z,77.69
2022-09-12T11:28:08.602Z,77.28
2022-09-12T11:29:08.590Z,76.89
2022-09-12T11:30:08.577Z,77.09
2022-09-12T11:31:08.624Z,76.58
2022-09-12T11:32:08.574Z,77.19
2022-09-12T11:33:08.552Z,76.62
2022-09-12T11:34:08.564Z,76.72
2022-09-12T11:35:08.544Z,77.12
2022-09-12T11:36:08.536Z,77.22
2022-09-12T11:37:10.926Z,77.12
2022-09-12T11:38:08.503Z,76.98
2022-09-12T11:39:08.509Z,77.12
2022-09-12T11:40:08.574Z,77.02
2022-09-12T11:41:08.484Z,77.28
2022-09-12T11:42:08.475Z,76.62
2022-09-12T11:43:08.479Z,76.82
2022-09-12T11:44:08.469Z,76.92
2022-09-12T11:45:08.459Z,77.19
2022-09-12T11:46:08.468Z,77.28
2022-09-12T11:47:08.452Z,77.39
2022-09-12T11:48:08.438Z,76.98
2022-09-12T11:49:08.431Z,77.19
2022-09-12T11:50:08.422Z,76.98
2022-09-12T11:51:08.407Z,77.09
2022-09-12T11:52:08.409Z,77.19
2022-09-12T11:53:08.390Z,76.68
2022-09-12T11:54:08.384Z,76.98
2022-09-12T11:55:08.384Z,77.09
2022-09-12T11:56:08.365Z,76.58
2022-09-12T11:57:08.351Z,76.89
2022-09-12T11:58:08.360Z,76.78
2022-09-12T11:59:08.346Z,76.58
2022-09-12T12:00:08.337Z,76.58
2022-09-12T12:01:08.336Z,76.98
2022-09-12T12:02:08.344Z,77.09
2022-09-12T12:03:08.392Z,77.09
2022-09-12T12:04:08.338Z,77.28
2022-09-12T12:05:08.284Z,77.19
2022-09-12T12:06:08.275Z,77.19
2022-09-12T12:07:08.265Z,76.98
2022-09-12T12:08:08.269Z,76.38
2022-09-12T12:09:08.273Z,76.48
2022-09-12T12:10:08.280Z,76.48
2022-09-12T12:11:08.248Z,76.48
2022-09-12T12:12:08.253Z,76.28
2022-09-12T12:13:13.291Z,76.28
2022-09-12T12:14:08.206Z,76.68
2022-09-12T12:15:08.212Z,76.98
2022-09-12T12:16:08.331Z,77.28
2022-09-12T12:17:08.180Z,77.28
2022-09-12T12:18:08.185Z,77.28
2022-09-12T12:19:10.748Z,77.28
2022-09-12T12:20:08.893Z,77.19
2022-09-12T12:21:08.163Z,77.19
2022-09-12T12:22:08.161Z,77.09
2022-09-12T12:23:08.149Z,77.28
2022-09-12T12:24:08.126Z,76.89
2022-09-12T12:25:08.114Z,75.98
2022-09-12T12:26:08.115Z,76.48
2022-09-12T12:27:08.109Z,76.58
2022-09-12T12:28:08.108Z,76.28
2022-09-12T12:29:08.088Z,76.58
2022-09-12T12:30:08.086Z,76.58
2022-09-12T12:31:08.133Z,76.98
2022-09-12T12:32:08.046Z,77.19
2022-09-12T12:33:08.046Z,77.25
2022-09-12T12:34:08.060Z,77.15
2022-09-12T12:35:08.028Z,76.95
2022-09-12T12:36:08.020Z,76.54
2022-09-12T12:37:08.029Z,76.34
2022-09-12T12:38:08.012Z,76.75
2022-09-12T12:39:08.012Z,77.15
2022-09-12T12:40:08.087Z,76.95
2022-09-12T12:41:07.993Z,77.05
2022-09-12T12:42:07.975Z,76.95
2022-09-12T12:43:07.965Z,76.75
2022-09-12T12:44:07.951Z,76.85
2022-09-12T12:45:07.942Z,76.85
2022-09-12T12:46:08.016Z,76.95
2022-09-12T12:47:07.922Z,77.05
2022-09-12T12:48:08.294Z,77.35
2022-09-12T12:49:07.925Z,77.45
2022-09-12T12:50:07.964Z,77.05
2022-09-12T12:51:07.910Z,77.15
2022-09-12T12:52:07.904Z,77.05
2022-09-12T12:53:07.874Z,77.15